sensor_id;sensor_type;location;lat;lon;timestamp;temperature;humidity
66013;DHT22;52783;50.502;8.190;2023-03-23T00:01:16;12.60;99.90
66013;DHT22;52783;50.502;8.190;2023-03-23T00:03:49;12.40;99.90
66013;DHT22;52783;50.502;8.190;2023-03-23T00:06:16;12.30;99.90
66013;DHT22;52783;50.502;8.190;2023-03-23T00:08:44;12.30;99.90
66013;DHT22;52783;50.502;8.190;2023-03-23T00:11:18;12.20;99.90
66013;DHT22;52783;50.502;8.190;2023-03-23T00:13:45;12.10;99.90
66013;DHT22;52783;50.502;8.190;2023-03-23T00:16:12;12.00;99.90
66013;DHT22;52783;50.502;8.190;2023-03-23T00:21:10;11.80;99.90
66013;DHT22;52783;50.502;8.190;2023-03-23T00:23:35;11.70;99.90
66013;DHT22;52783;50.502;8.190;2023-03-23T00:26:01;11.60;99.90
66013;DHT22;52783;50.502;8.190;2023-03-23T00:28:27;11.60;99.90
66013;DHT22;52783;50.502;8.190;2023-03-23T00:30:56;11.60;99.90
66013;DHT22;52783;50.502;8.190;2023-03-23T00:33:23;11.60;99.90
66013;DHT22;52783;50.502;8.190;2023-03-23T00:35:49;11.60;99.90
66013;DHT22;52783;50.502;8.190;2023-03-23T00:38:21;11.50;99.90
66013;DHT22;52783;50.502;8.190;2023-03-23T00:40:47;11.50;99.90
66013;DHT22;52783;50.502;8.190;2023-03-23T00:43:17;11.50;99.90
66013;DHT22;52783;50.502;8.190;2023-03-23T00:45:43;11.50;99.90
66013;DHT22;52783;50.502;8.190;2023-03-23T00:48:24;11.40;99.90
66013;DHT22;52783;50.502;8.190;2023-03-23T00:50:50;11.40;99.90
66013;DHT22;52783;50.502;8.190;2023-03-23T00:53:17;11.40;99.90
66013;DHT22;52783;50.502;8.190;2023-03-23T00:55:44;11.40;99.90
66013;DHT22;52783;50.502;8.190;2023-03-23T00:58:11;11.30;99.90
66013;DHT22;52783;50.502;8.190;2023-03-23T01:00:36;11.30;99.90
66013;DHT22;52783;50.502;8.190;2023-03-23T01:03:02;11.30;99.90
66013;DHT22;52783;50.502;8.190;2023-03-23T01:05:28;11.20;99.90
66013;DHT22;52783;50.502;8.190;2023-03-23T01:07:58;11.10;99.90
66013;DHT22;52783;50.502;8.190;2023-03-23T01:10:23;11.10;99.90
66013;DHT22;52783;50.502;8.190;2023-03-23T01:12:50;11.10;99.90
66013;DHT22;52783;50.502;8.190;2023-03-23T01:15:17;11.00;99.90
66013;DHT22;52783;50.502;8.190;2023-03-23T01:17:44;11.00;99.90
66013;DHT22;52783;50.502;8.190;2023-03-23T01:20:14;11.00;99.90
66013;DHT22;52783;50.502;8.190;2023-03-23T01:22:41;11.00;99.90
66013;DHT22;52783;50.502;8.190;2023-03-23T01:25:12;11.00;99.90
66013;DHT22;52783;50.502;8.190;2023-03-23T01:27:38;11.10;99.90
66013;DHT22;52783;50.502;8.190;2023-03-23T01:30:07;11.10;99.90
66013;DHT22;52783;50.502;8.190;2023-03-23T01:32:33;11.10;99.90
66013;DHT22;52783;50.502;8.190;2023-03-23T01:34:58;11.10;99.90
66013;DHT22;52783;50.502;8.190;2023-03-23T01:37:24;11.10;99.90
66013;DHT22;52783;50.502;8.190;2023-03-23T01:39:53;11.20;99.90
66013;DHT22;52783;50.502;8.190;2023-03-23T01:42:24;11.10;99.90
66013;DHT22;52783;50.502;8.190;2023-03-23T01:47:17;11.20;99.90
66013;DHT22;52783;50.502;8.190;2023-03-23T01:49:46;11.20;99.90
66013;DHT22;52783;50.502;8.190;2023-03-23T01:52:23;11.20;99.90
66013;DHT22;52783;50.502;8.190;2023-03-23T01:54:53;11.20;99.90
66013;DHT22;52783;50.502;8.190;2023-03-23T01:57:22;11.30;99.90
66013;DHT22;52783;50.502;8.190;2023-03-23T01:59:50;11.20;99.90
66013;DHT22;52783;50.502;8.190;2023-03-23T02:02:18;11.20;99.90
66013;DHT22;52783;50.502;8.190;2023-03-23T02:04:44;11.20;99.90
66013;DHT22;52783;50.502;8.190;2023-03-23T02:07:12;11.20;99.90
66013;DHT22;52783;50.502;8.190;2023-03-23T02:09:39;11.20;99.90
66013;DHT22;52783;50.502;8.190;2023-03-23T02:12:05;11.20;99.90
66013;DHT22;52783;50.502;8.190;2023-03-23T02:14:31;11.20;99.90
66013;DHT22;52783;50.502;8.190;2023-03-23T02:17:34;11.30;99.90
66013;DHT22;52783;50.502;8.190;2023-03-23T02:29:26;11.30;99.90
66013;DHT22;52783;50.502;8.190;2023-03-23T02:34:51;11.30;99.90
66013;DHT22;52783;50.502;8.190;2023-03-23T02:37:24;11.40;99.90
66013;DHT22;52783;50.502;8.190;2023-03-23T02:39:54;11.40;99.90
66013;DHT22;52783;50.502;8.190;2023-03-23T02:42:26;11.30;99.90
66013;DHT22;52783;50.502;8.190;2023-03-23T02:44:54;11.30;99.90
66013;DHT22;52783;50.502;8.190;2023-03-23T02:47:24;11.30;99.90
66013;DHT22;52783;50.502;8.190;2023-03-23T02:49:53;11.20;99.90
66013;DHT22;52783;50.502;8.190;2023-03-23T02:52:23;11.30;99.90
66013;DHT22;52783;50.502;8.190;2023-03-23T02:54:51;11.20;99.90
66013;DHT22;52783;50.502;8.190;2023-03-23T02:57:17;11.20;99.90
66013;DHT22;52783;50.502;8.190;2023-03-23T02:59:42;11.20;99.90
66013;DHT22;52783;50.502;8.190;2023-03-23T03:02:29;11.20;99.90
66013;DHT22;52783;50.502;8.190;2023-03-23T03:05:16;11.10;99.90
66013;DHT22;52783;50.502;8.190;2023-03-23T03:08:03;11.10;99.90
66013;DHT22;52783;50.502;8.190;2023-03-23T03:10:37;11.10;99.90
66013;DHT22;52783;50.502;8.190;2023-03-23T03:13:21;11.10;99.90
66013;DHT22;52783;50.502;8.190;2023-03-23T03:15:59;11.10;99.90
66013;DHT22;52783;50.502;8.190;2023-03-23T03:18:34;11.10;99.90
66013;DHT22;52783;50.502;8.190;2023-03-23T03:21:07;11.10;99.90
66013;DHT22;52783;50.502;8.190;2023-03-23T03:23:37;11.10;99.90
66013;DHT22;52783;50.502;8.190;2023-03-23T03:26:04;11.10;99.90
66013;DHT22;52783;50.502;8.190;2023-03-23T03:28:32;11.10;99.90
66013;DHT22;52783;50.502;8.190;2023-03-23T03:31:00;11.10;99.90
66013;DHT22;52783;50.502;8.190;2023-03-23T03:33:27;11.00;99.90
66013;DHT22;52783;50.502;8.190;2023-03-23T03:35:58;11.10;99.90
66013;DHT22;52783;50.502;8.190;2023-03-23T03:38:25;11.10;99.90
66013;DHT22;52783;50.502;8.190;2023-03-23T03:40:51;11.10;99.90
66013;DHT22;52783;50.502;8.190;2023-03-23T03:43:17;11.10;99.90
66013;DHT22;52783;50.502;8.190;2023-03-23T03:45:43;11.00;99.90
66013;DHT22;52783;50.502;8.190;2023-03-23T03:48:09;11.00;99.90
66013;DHT22;52783;50.502;8.190;2023-03-23T03:50:35;11.00;99.90
66013;DHT22;52783;50.502;8.190;2023-03-23T03:53:00;11.00;99.90
66013;DHT22;52783;50.502;8.190;2023-03-23T03:55:26;11.00;99.90
66013;DHT22;52783;50.502;8.190;2023-03-23T03:57:54;10.90;99.90
66013;DHT22;52783;50.502;8.190;2023-03-23T04:00:20;10.90;99.90
66013;DHT22;52783;50.502;8.190;2023-03-23T04:02:49;10.90;99.90
66013;DHT22;52783;50.502;8.190;2023-03-23T04:05:19;10.80;99.90
66013;DHT22;52783;50.502;8.190;2023-03-23T04:07:45;10.80;99.90
66013;DHT22;52783;50.502;8.190;2023-03-23T04:10:17;10.80;99.90
66013;DHT22;52783;50.502;8.190;2023-03-23T04:12:45;10.70;99.90
66013;DHT22;52783;50.502;8.190;2023-03-23T04:15:10;10.70;99.90
66013;DHT22;52783;50.502;8.190;2023-03-23T04:17:36;10.80;99.90
66013;DHT22;52783;50.502;8.190;2023-03-23T04:20:02;10.80;99.90
66013;DHT22;52783;50.502;8.190;2023-03-23T04:22:33;10.80;99.90
66013;DHT22;52783;50.502;8.190;2023-03-23T04:25:00;10.70;99.90
66013;DHT22;52783;50.502;8.190;2023-03-23T04:27:27;10.80;99.90
66013;DHT22;52783;50.502;8.190;2023-03-23T04:29:55;10.80;99.90
66013;DHT22;52783;50.502;8.190;2023-03-23T04:32:23;10.70;99.90
66013;DHT22;52783;50.502;8.190;2023-03-23T04:34:50;10.70;99.90
66013;DHT22;52783;50.502;8.190;2023-03-23T04:37:15;10.80;99.90
66013;DHT22;52783;50.502;8.190;2023-03-23T04:39:41;10.80;99.90
66013;DHT22;52783;50.502;8.190;2023-03-23T04:42:10;10.80;99.90
66013;DHT22;52783;50.502;8.190;2023-03-23T04:44:36;10.80;99.90
66013;DHT22;52783;50.502;8.190;2023-03-23T04:47:02;10.80;99.90
66013;DHT22;52783;50.502;8.190;2023-03-23T04:49:27;10.80;99.90
66013;DHT22;52783;50.502;8.190;2023-03-23T04:51:55;10.80;99.90
66013;DHT22;52783;50.502;8.190;2023-03-23T04:54:21;10.80;99.90
66013;DHT22;52783;50.502;8.190;2023-03-23T04:56:47;10.80;99.90
66013;DHT22;52783;50.502;8.190;2023-03-23T04:59:12;10.80;99.90
66013;DHT22;52783;50.502;8.190;2023-03-23T05:01:40;10.80;99.90
66013;DHT22;52783;50.502;8.190;2023-03-23T05:04:11;10.80;99.90
66013;DHT22;52783;50.502;8.190;2023-03-23T05:06:41;10.80;99.90
66013;DHT22;52783;50.502;8.190;2023-03-23T05:09:10;10.90;99.90
66013;DHT22;52783;50.502;8.190;2023-03-23T05:11:36;10.90;99.90
66013;DHT22;52783;50.502;8.190;2023-03-23T05:14:03;10.80;99.90
66013;DHT22;52783;50.502;8.190;2023-03-23T05:18:59;10.90;99.90
66013;DHT22;52783;50.502;8.190;2023-03-23T05:21:25;10.90;99.90
66013;DHT22;52783;50.502;8.190;2023-03-23T05:23:51;10.80;99.90
66013;DHT22;52783;50.502;8.190;2023-03-23T05:26:20;10.90;99.90
66013;DHT22;52783;50.502;8.190;2023-03-23T05:28:46;10.90;99.90
66013;DHT22;52783;50.502;8.190;2023-03-23T05:31:13;10.90;99.90
66013;DHT22;52783;50.502;8.190;2023-03-23T05:33:39;10.90;99.90
66013;DHT22;52783;50.502;8.190;2023-03-23T05:36:04;11.00;99.90
66013;DHT22;52783;50.502;8.190;2023-03-23T05:38:32;11.00;99.90
66013;DHT22;52783;50.502;8.190;2023-03-23T05:41:01;11.00;99.90
66013;DHT22;52783;50.502;8.190;2023-03-23T05:43:26;11.00;99.90
66013;DHT22;52783;50.502;8.190;2023-03-23T05:45:52;11.00;99.90
66013;DHT22;52783;50.502;8.190;2023-03-23T05:48:18;11.00;99.90
66013;DHT22;52783;50.502;8.190;2023-03-23T05:50:43;11.00;99.90
66013;DHT22;52783;50.502;8.190;2023-03-23T05:53:09;11.10;99.90
66013;DHT22;52783;50.502;8.190;2023-03-23T05:55:35;11.10;99.90
66013;DHT22;52783;50.502;8.190;2023-03-23T05:58:01;11.10;99.90
66013;DHT22;52783;50.502;8.190;2023-03-23T06:00:26;11.10;99.90
66013;DHT22;52783;50.502;8.190;2023-03-23T06:02:55;11.10;99.90
66013;DHT22;52783;50.502;8.190;2023-03-23T06:05:22;11.10;99.90
66013;DHT22;52783;50.502;8.190;2023-03-23T06:07:47;11.10;99.90
66013;DHT22;52783;50.502;8.190;2023-03-23T06:10:13;11.10;99.90
66013;DHT22;52783;50.502;8.190;2023-03-23T06:12:40;11.10;99.90
66013;DHT22;52783;50.502;8.190;2023-03-23T06:15:06;11.10;99.90
66013;DHT22;52783;50.502;8.190;2023-03-23T06:17:33;11.10;99.90
66013;DHT22;52783;50.502;8.190;2023-03-23T06:19:59;11.20;99.90
66013;DHT22;52783;50.502;8.190;2023-03-23T06:22:25;11.20;99.90
66013;DHT22;52783;50.502;8.190;2023-03-23T06:24:51;11.20;99.90
66013;DHT22;52783;50.502;8.190;2023-03-23T06:27:17;11.20;99.90
66013;DHT22;52783;50.502;8.190;2023-03-23T06:29:43;11.20;99.90
66013;DHT22;52783;50.502;8.190;2023-03-23T06:32:10;11.20;99.90
66013;DHT22;52783;50.502;8.190;2023-03-23T06:34:37;11.20;99.90
66013;DHT22;52783;50.502;8.190;2023-03-23T06:37:02;11.30;99.90
66013;DHT22;52783;50.502;8.190;2023-03-23T06:39:28;11.30;99.90
66013;DHT22;52783;50.502;8.190;2023-03-23T06:41:53;11.30;99.90
66013;DHT22;52783;50.502;8.190;2023-03-23T06:44:20;11.30;99.90
66013;DHT22;52783;50.502;8.190;2023-03-23T06:46:45;11.40;99.90
66013;DHT22;52783;50.502;8.190;2023-03-23T06:49:11;11.40;99.90
66013;DHT22;52783;50.502;8.190;2023-03-23T06:51:37;11.40;99.90
66013;DHT22;52783;50.502;8.190;2023-03-23T06:54:04;11.40;99.90
66013;DHT22;52783;50.502;8.190;2023-03-23T06:56:31;11.40;99.90
66013;DHT22;52783;50.502;8.190;2023-03-23T06:58:56;11.40;99.90
66013;DHT22;52783;50.502;8.190;2023-03-23T07:01:22;11.40;99.90
66013;DHT22;52783;50.502;8.190;2023-03-23T07:03:47;11.50;99.90
66013;DHT22;52783;50.502;8.190;2023-03-23T07:06:14;11.40;99.90
66013;DHT22;52783;50.502;8.190;2023-03-23T07:08:40;11.50;99.90
66013;DHT22;52783;50.502;8.190;2023-03-23T07:11:06;11.40;99.90
66013;DHT22;52783;50.502;8.190;2023-03-23T07:13:32;11.50;99.90
66013;DHT22;52783;50.502;8.190;2023-03-23T07:15:57;11.50;99.90
66013;DHT22;52783;50.502;8.190;2023-03-23T07:18:23;11.60;99.90
66013;DHT22;52783;50.502;8.190;2023-03-23T07:20:50;11.50;99.90
66013;DHT22;52783;50.502;8.190;2023-03-23T07:23:16;11.60;99.90
66013;DHT22;52783;50.502;8.190;2023-03-23T07:25:43;11.60;99.90
66013;DHT22;52783;50.502;8.190;2023-03-23T07:28:08;11.70;99.90
66013;DHT22;52783;50.502;8.190;2023-03-23T07:30:34;11.70;99.90
66013;DHT22;52783;50.502;8.190;2023-03-23T07:33:07;11.70;99.90
66013;DHT22;52783;50.502;8.190;2023-03-23T07:35:34;11.80;99.90
66013;DHT22;52783;50.502;8.190;2023-03-23T07:37:59;11.80;99.90
66013;DHT22;52783;50.502;8.190;2023-03-23T07:40:26;11.80;99.90
66013;DHT22;52783;50.502;8.190;2023-03-23T07:42:53;11.80;99.90
66013;DHT22;52783;50.502;8.190;2023-03-23T07:45:20;11.80;99.90
66013;DHT22;52783;50.502;8.190;2023-03-23T07:47:46;11.80;99.90
66013;DHT22;52783;50.502;8.190;2023-03-23T07:50:12;11.80;99.90
66013;DHT22;52783;50.502;8.190;2023-03-23T07:52:39;11.80;99.90
66013;DHT22;52783;50.502;8.190;2023-03-23T07:55:08;11.80;99.90
66013;DHT22;52783;50.502;8.190;2023-03-23T07:57:34;11.80;99.90
66013;DHT22;52783;50.502;8.190;2023-03-23T07:59:59;11.80;99.90
66013;DHT22;52783;50.502;8.190;2023-03-23T08:02:26;11.80;99.90
66013;DHT22;52783;50.502;8.190;2023-03-23T08:04:52;11.80;99.90
66013;DHT22;52783;50.502;8.190;2023-03-23T08:07:19;11.80;99.90
66013;DHT22;52783;50.502;8.190;2023-03-23T08:09:45;11.80;99.90
66013;DHT22;52783;50.502;8.190;2023-03-23T08:12:12;11.80;99.90
66013;DHT22;52783;50.502;8.190;2023-03-23T08:14:37;11.80;99.90
66013;DHT22;52783;50.502;8.190;2023-03-23T08:17:03;11.90;99.90
66013;DHT22;52783;50.502;8.190;2023-03-23T08:19:29;12.00;99.90
66013;DHT22;52783;50.502;8.190;2023-03-23T08:21:54;12.00;99.90
66013;DHT22;52783;50.502;8.190;2023-03-23T08:24:20;12.10;99.90
66013;DHT22;52783;50.502;8.190;2023-03-23T08:26:45;12.10;99.90
66013;DHT22;52783;50.502;8.190;2023-03-23T08:29:11;12.10;99.90
66013;DHT22;52783;50.502;8.190;2023-03-23T08:31:38;12.10;99.90
66013;DHT22;52783;50.502;8.190;2023-03-23T08:34:04;12.10;99.90
66013;DHT22;52783;50.502;8.190;2023-03-23T08:36:31;12.10;99.90
66013;DHT22;52783;50.502;8.190;2023-03-23T08:38:57;12.10;99.90
66013;DHT22;52783;50.502;8.190;2023-03-23T08:41:23;12.20;99.90
66013;DHT22;52783;50.502;8.190;2023-03-23T08:43:49;12.30;99.90
66013;DHT22;52783;50.502;8.190;2023-03-23T08:46:15;12.30;99.90
66013;DHT22;52783;50.502;8.190;2023-03-23T08:48:41;12.40;99.90
66013;DHT22;52783;50.502;8.190;2023-03-23T08:51:06;12.60;99.90
66013;DHT22;52783;50.502;8.190;2023-03-23T08:53:32;12.60;99.90
66013;DHT22;52783;50.502;8.190;2023-03-23T08:56:10;12.60;99.90
66013;DHT22;52783;50.502;8.190;2023-03-23T08:58:37;12.60;99.90
66013;DHT22;52783;50.502;8.190;2023-03-23T09:01:04;12.50;99.90
66013;DHT22;52783;50.502;8.190;2023-03-23T09:03:33;12.50;99.90
66013;DHT22;52783;50.502;8.190;2023-03-23T09:06:01;12.50;99.90
66013;DHT22;52783;50.502;8.190;2023-03-23T09:08:28;12.50;99.90
66013;DHT22;52783;50.502;8.190;2023-03-23T09:10:58;12.50;99.90
66013;DHT22;52783;50.502;8.190;2023-03-23T09:13:23;12.50;99.90
66013;DHT22;52783;50.502;8.190;2023-03-23T09:15:49;12.60;99.90
66013;DHT22;52783;50.502;8.190;2023-03-23T09:18:15;12.60;99.90
66013;DHT22;52783;50.502;8.190;2023-03-23T09:20:41;12.50;99.90
66013;DHT22;52783;50.502;8.190;2023-03-23T09:23:08;12.60;99.90
66013;DHT22;52783;50.502;8.190;2023-03-23T09:25:33;12.60;99.90
66013;DHT22;52783;50.502;8.190;2023-03-23T09:27:59;12.70;99.90
66013;DHT22;52783;50.502;8.190;2023-03-23T09:30:27;12.70;99.90
66013;DHT22;52783;50.502;8.190;2023-03-23T09:32:53;12.70;99.90
66013;DHT22;52783;50.502;8.190;2023-03-23T09:35:19;12.60;99.90
66013;DHT22;52783;50.502;8.190;2023-03-23T09:37:48;12.60;99.90
66013;DHT22;52783;50.502;8.190;2023-03-23T09:40:19;12.60;99.90
66013;DHT22;52783;50.502;8.190;2023-03-23T09:43:22;12.50;99.90
66013;DHT22;52783;50.502;8.190;2023-03-23T09:46:14;12.50;99.90
66013;DHT22;52783;50.502;8.190;2023-03-23T09:48:55;12.50;99.90
66013;DHT22;52783;50.502;8.190;2023-03-23T09:54:36;12.40;99.90
66013;DHT22;52783;50.502;8.190;2023-03-23T09:57:03;12.40;99.90
66013;DHT22;52783;50.502;8.190;2023-03-23T10:02:15;12.40;99.90
66013;DHT22;52783;50.502;8.190;2023-03-23T10:04:48;12.40;99.90
66013;DHT22;52783;50.502;8.190;2023-03-23T10:07:19;12.40;99.90
66013;DHT22;52783;50.502;8.190;2023-03-23T10:09:48;12.50;99.90
66013;DHT22;52783;50.502;8.190;2023-03-23T10:12:36;12.50;99.90
66013;DHT22;52783;50.502;8.190;2023-03-23T10:15:16;12.40;99.90
66013;DHT22;52783;50.502;8.190;2023-03-23T10:25:27;12.20;99.90
66013;DHT22;52783;50.502;8.190;2023-03-23T10:28:04;12.20;99.90
66013;DHT22;52783;50.502;8.190;2023-03-23T10:30:39;12.20;99.90
66013;DHT22;52783;50.502;8.190;2023-03-23T10:33:20;12.40;99.90
66013;DHT22;52783;50.502;8.190;2023-03-23T10:36:19;12.50;99.90
66013;DHT22;52783;50.502;8.190;2023-03-23T10:38:49;12.60;99.90
66013;DHT22;52783;50.502;8.190;2023-03-23T10:41:19;12.60;99.90
66013;DHT22;52783;50.502;8.190;2023-03-23T10:43:46;12.60;99.90
66013;DHT22;52783;50.502;8.190;2023-03-23T10:48:52;12.70;99.90
66013;DHT22;52783;50.502;8.190;2023-03-23T10:51:22;12.70;99.90
66013;DHT22;52783;50.502;8.190;2023-03-23T10:53:56;12.70;99.90
66013;DHT22;52783;50.502;8.190;2023-03-23T10:56:28;12.70;99.90
66013;DHT22;52783;50.502;8.190;2023-03-23T10:58:55;12.60;99.90
66013;DHT22;52783;50.502;8.190;2023-03-23T11:01:32;12.70;99.90
66013;DHT22;52783;50.502;8.190;2023-03-23T11:03:59;12.70;99.90
66013;DHT22;52783;50.502;8.190;2023-03-23T11:06:30;12.80;99.90
66013;DHT22;52783;50.502;8.190;2023-03-23T11:09:09;12.80;99.90
66013;DHT22;52783;50.502;8.190;2023-03-23T11:11:41;12.90;99.90
66013;DHT22;52783;50.502;8.190;2023-03-23T11:14:26;12.80;99.90
66013;DHT22;52783;50.502;8.190;2023-03-23T11:19:34;12.90;99.90
66013;DHT22;52783;50.502;8.190;2023-03-23T11:24:32;12.80;99.90
66013;DHT22;52783;50.502;8.190;2023-03-23T11:26:58;12.80;99.90
66013;DHT22;52783;50.502;8.190;2023-03-23T11:29:27;12.90;99.90
66013;DHT22;52783;50.502;8.190;2023-03-23T11:32:04;12.90;99.90
66013;DHT22;52783;50.502;8.190;2023-03-23T11:34:44;13.00;99.90
66013;DHT22;52783;50.502;8.190;2023-03-23T11:37:35;13.20;99.90
66013;DHT22;52783;50.502;8.190;2023-03-23T11:40:22;13.20;99.90
66013;DHT22;52783;50.502;8.190;2023-03-23T11:45:24;13.20;99.90
66013;DHT22;52783;50.502;8.190;2023-03-23T11:47:54;13.40;99.90
66013;DHT22;52783;50.502;8.190;2023-03-23T11:50:24;13.40;99.90
66013;DHT22;52783;50.502;8.190;2023-03-23T11:58:15;13.40;99.90
66013;DHT22;52783;50.502;8.190;2023-03-23T12:00:56;13.50;99.90
66013;DHT22;52783;50.502;8.190;2023-03-23T12:03:22;13.60;99.90
66013;DHT22;52783;50.502;8.190;2023-03-23T12:06:01;13.60;99.90
66013;DHT22;52783;50.502;8.190;2023-03-23T12:17:13;13.70;99.90
66013;DHT22;52783;50.502;8.190;2023-03-23T12:19:44;13.80;99.90
66013;DHT22;52783;50.502;8.190;2023-03-23T12:25:17;13.90;99.90
66013;DHT22;52783;50.502;8.190;2023-03-23T12:30:35;14.10;99.90
66013;DHT22;52783;50.502;8.190;2023-03-23T12:33:13;14.20;99.90
66013;DHT22;52783;50.502;8.190;2023-03-23T12:36:24;14.30;99.90
66013;DHT22;52783;50.502;8.190;2023-03-23T12:39:04;14.30;99.90
66013;DHT22;52783;50.502;8.190;2023-03-23T12:44:33;14.10;99.90
66013;DHT22;52783;50.502;8.190;2023-03-23T12:50:01;14.20;99.90
66013;DHT22;52783;50.502;8.190;2023-03-23T12:52:31;14.20;99.90
66013;DHT22;52783;50.502;8.190;2023-03-23T13:00:34;14.70;99.90
66013;DHT22;52783;50.502;8.190;2023-03-23T13:03:17;14.80;99.90
66013;DHT22;52783;50.502;8.190;2023-03-23T13:05:50;14.50;99.90
66013;DHT22;52783;50.502;8.190;2023-03-23T13:08:27;14.70;99.90
66013;DHT22;52783;50.502;8.190;2023-03-23T13:10:59;15.00;99.90
66013;DHT22;52783;50.502;8.190;2023-03-23T13:13:43;15.30;99.90
66013;DHT22;52783;50.502;8.190;2023-03-23T13:16:44;15.20;99.90
66013;DHT22;52783;50.502;8.190;2023-03-23T13:24:45;15.90;99.90
66013;DHT22;52783;50.502;8.190;2023-03-23T13:27:12;16.00;99.90
66013;DHT22;52783;50.502;8.190;2023-03-23T13:29:44;15.70;99.90
66013;DHT22;52783;50.502;8.190;2023-03-23T13:32:15;15.70;99.90
66013;DHT22;52783;50.502;8.190;2023-03-23T13:34:41;15.80;99.90
66013;DHT22;52783;50.502;8.190;2023-03-23T13:39:53;15.70;99.90
66013;DHT22;52783;50.502;8.190;2023-03-23T13:42:26;15.40;99.90
66013;DHT22;52783;50.502;8.190;2023-03-23T13:53:00;15.50;99.90
66013;DHT22;52783;50.502;8.190;2023-03-23T14:05:59;15.10;99.90
66013;DHT22;52783;50.502;8.190;2023-03-23T14:13:33;14.90;99.90
66013;DHT22;52783;50.502;8.190;2023-03-23T14:16:18;14.90;99.90
66013;DHT22;52783;50.502;8.190;2023-03-23T14:19:02;14.90;99.90
66013;DHT22;52783;50.502;8.190;2023-03-23T14:21:35;15.10;99.90
66013;DHT22;52783;50.502;8.190;2023-03-23T14:24:16;15.10;99.90
66013;DHT22;52783;50.502;8.190;2023-03-23T14:26:42;15.00;99.90
66013;DHT22;52783;50.502;8.190;2023-03-23T14:29:10;15.20;99.90
66013;DHT22;52783;50.502;8.190;2023-03-23T14:31:37;15.30;99.90
66013;DHT22;52783;50.502;8.190;2023-03-23T14:34:12;15.30;99.90
66013;DHT22;52783;50.502;8.190;2023-03-23T14:36:39;15.40;99.90
66013;DHT22;52783;50.502;8.190;2023-03-23T14:39:26;15.30;99.90
66013;DHT22;52783;50.502;8.190;2023-03-23T14:41:54;15.30;99.90
66013;DHT22;52783;50.502;8.190;2023-03-23T14:44:30;15.40;99.90
66013;DHT22;52783;50.502;8.190;2023-03-23T14:47:00;15.40;99.90
66013;DHT22;52783;50.502;8.190;2023-03-23T14:49:31;15.30;99.90
66013;DHT22;52783;50.502;8.190;2023-03-23T14:52:03;15.20;99.90
66013;DHT22;52783;50.502;8.190;2023-03-23T14:54:33;15.10;99.90
66013;DHT22;52783;50.502;8.190;2023-03-23T14:57:05;15.00;99.90
66013;DHT22;52783;50.502;8.190;2023-03-23T14:59:35;14.90;99.90
66013;DHT22;52783;50.502;8.190;2023-03-23T15:02:01;14.80;99.90
66013;DHT22;52783;50.502;8.190;2023-03-23T15:04:27;14.70;99.90
66013;DHT22;52783;50.502;8.190;2023-03-23T15:07:00;14.70;99.90
66013;DHT22;52783;50.502;8.190;2023-03-23T15:09:26;14.70;99.90
66013;DHT22;52783;50.502;8.190;2023-03-23T15:12:03;14.60;99.90
66013;DHT22;52783;50.502;8.190;2023-03-23T15:14:41;14.60;99.90
66013;DHT22;52783;50.502;8.190;2023-03-23T15:17:27;14.70;99.90
66013;DHT22;52783;50.502;8.190;2023-03-23T15:19:54;14.80;99.90
66013;DHT22;52783;50.502;8.190;2023-03-23T15:22:29;14.70;99.90
66013;DHT22;52783;50.502;8.190;2023-03-23T15:27:54;14.70;99.90
66013;DHT22;52783;50.502;8.190;2023-03-23T15:33:09;14.60;99.90
66013;DHT22;52783;50.502;8.190;2023-03-23T15:35:38;14.50;99.90
66013;DHT22;52783;50.502;8.190;2023-03-23T15:38:17;14.40;99.90
66013;DHT22;52783;50.502;8.190;2023-03-23T15:40:43;14.40;99.90
66013;DHT22;52783;50.502;8.190;2023-03-23T15:43:20;14.30;99.90
66013;DHT22;52783;50.502;8.190;2023-03-23T15:45:59;14.20;99.90
66013;DHT22;52783;50.502;8.190;2023-03-23T15:48:51;14.20;99.90
66013;DHT22;52783;50.502;8.190;2023-03-23T15:51:19;14.30;99.90
66013;DHT22;52783;50.502;8.190;2023-03-23T15:53:45;14.40;99.90
66013;DHT22;52783;50.502;8.190;2023-03-23T15:56:12;14.30;99.90
66013;DHT22;52783;50.502;8.190;2023-03-23T15:58:39;14.30;99.90
66013;DHT22;52783;50.502;8.190;2023-03-23T16:01:11;14.30;99.90
66013;DHT22;52783;50.502;8.190;2023-03-23T16:03:41;14.30;99.90
66013;DHT22;52783;50.502;8.190;2023-03-23T16:06:12;14.30;99.90
66013;DHT22;52783;50.502;8.190;2023-03-23T16:08:38;14.30;99.90
66013;DHT22;52783;50.502;8.190;2023-03-23T16:11:08;14.30;99.90
66013;DHT22;52783;50.502;8.190;2023-03-23T16:13:33;14.30;99.90
66013;DHT22;52783;50.502;8.190;2023-03-23T16:15:59;14.30;99.90
66013;DHT22;52783;50.502;8.190;2023-03-23T16:18:24;14.20;99.90
66013;DHT22;52783;50.502;8.190;2023-03-23T16:20:50;14.10;99.90
66013;DHT22;52783;50.502;8.190;2023-03-23T16:23:16;14.10;99.90
66013;DHT22;52783;50.502;8.190;2023-03-23T16:25:42;14.10;99.90
66013;DHT22;52783;50.502;8.190;2023-03-23T16:28:11;14.10;99.90
66013;DHT22;52783;50.502;8.190;2023-03-23T16:30:38;14.00;99.90
66013;DHT22;52783;50.502;8.190;2023-03-23T16:33:04;14.00;99.90
66013;DHT22;52783;50.502;8.190;2023-03-23T16:35:30;13.90;99.90
66013;DHT22;52783;50.502;8.190;2023-03-23T16:37:59;13.90;99.90
66013;DHT22;52783;50.502;8.190;2023-03-23T16:40:24;13.90;99.90
66013;DHT22;52783;50.502;8.190;2023-03-23T16:42:52;13.80;99.90
66013;DHT22;52783;50.502;8.190;2023-03-23T16:45:18;13.80;99.90
66013;DHT22;52783;50.502;8.190;2023-03-23T16:47:44;13.80;99.90
66013;DHT22;52783;50.502;8.190;2023-03-23T16:50:12;13.80;99.90
66013;DHT22;52783;50.502;8.190;2023-03-23T16:52:40;13.70;99.90
66013;DHT22;52783;50.502;8.190;2023-03-23T16:55:07;13.70;99.90
66013;DHT22;52783;50.502;8.190;2023-03-23T16:57:33;13.70;99.90
66013;DHT22;52783;50.502;8.190;2023-03-23T17:00:06;13.60;99.90
66013;DHT22;52783;50.502;8.190;2023-03-23T17:02:33;13.60;99.90
66013;DHT22;52783;50.502;8.190;2023-03-23T17:04:59;13.60;99.90
66013;DHT22;52783;50.502;8.190;2023-03-23T17:07:26;13.50;99.90
66013;DHT22;52783;50.502;8.190;2023-03-23T17:09:52;13.50;99.90
66013;DHT22;52783;50.502;8.190;2023-03-23T17:12:18;13.50;99.90
66013;DHT22;52783;50.502;8.190;2023-03-23T17:14:44;13.50;99.90
66013;DHT22;52783;50.502;8.190;2023-03-23T17:19:47;13.40;99.90
66013;DHT22;52783;50.502;8.190;2023-03-23T17:22:12;13.30;99.90
66013;DHT22;52783;50.502;8.190;2023-03-23T17:24:38;13.30;99.90
66013;DHT22;52783;50.502;8.190;2023-03-23T17:27:03;13.30;99.90
66013;DHT22;52783;50.502;8.190;2023-03-23T17:29:29;13.30;99.90
66013;DHT22;52783;50.502;8.190;2023-03-23T17:31:54;13.20;99.90
66013;DHT22;52783;50.502;8.190;2023-03-23T17:34:20;13.10;99.90
66013;DHT22;52783;50.502;8.190;2023-03-23T17:36:46;13.10;99.90
66013;DHT22;52783;50.502;8.190;2023-03-23T17:39:11;13.10;99.90